sensor_id;sensor_type;location;lat;lon;timestamp;pressure;altitude;pressure_sealevel;temperature;humidity
65756;BME280;69208;47.502;18.940;2023-05-18T00:00:38;98224.97;;;10.33;100.00
65756;BME280;69208;47.502;18.940;2023-05-18T00:01:41;98231.59;;;10.25;100.00
65756;BME280;69208;47.502;18.940;2023-05-18T00:02:44;98226.88;;;10.27;100.00
65756;BME280;69208;47.502;18.940;2023-05-18T00:03:50;98230.53;;;10.26;100.00
65756;BME280;69208;47.502;18.940;2023-05-18T00:04:56;98236.72;;;10.35;100.00
65756;BME280;69208;47.502;18.940;2023-05-18T00:05:59;98233.72;;;10.42;100.00
65756;BME280;69208;47.502;18.940;2023-05-18T00:07:06;98240.94;;;10.31;100.00
65756;BME280;69208;47.502;18.940;2023-05-18T00:08:09;98237.75;;;10.34;100.00
65756;BME280;69208;47.502;18.940;2023-05-18T00:09:12;98230.41;;;10.36;100.00
65756;BME280;69208;47.502;18.940;2023-05-18T00:10:15;98235.50;;;10.28;100.00
65756;BME280;69208;47.502;18.940;2023-05-18T00:11:18;98242.72;;;10.36;100.00
65756;BME280;69208;47.502;18.940;2023-05-18T00:12:21;98245.34;;;10.36;100.00
65756;BME280;69208;47.502;18.940;2023-05-18T00:13:24;98237.25;;;10.32;100.00
65756;BME280;69208;47.502;18.940;2023-05-18T00:14:27;98235.75;;;10.26;100.00
65756;BME280;69208;47.502;18.940;2023-05-18T00:15:30;98238.53;;;10.35;100.00
65756;BME280;69208;47.502;18.940;2023-05-18T00:16:34;98248.03;;;10.31;100.00
65756;BME280;69208;47.502;18.940;2023-05-18T00:17:36;98247.47;;;10.34;100.00
65756;BME280;69208;47.502;18.940;2023-05-18T00:18:40;98241.44;;;10.33;100.00
65756;BME280;69208;47.502;18.940;2023-05-18T00:19:43;98246.81;;;10.42;100.00
65756;BME280;69208;47.502;18.940;2023-05-18T00:20:49;98240.56;;;10.38;100.00
65756;BME280;69208;47.502;18.940;2023-05-18T00:21:53;98238.13;;;10.28;100.00
65756;BME280;69208;47.502;18.940;2023-05-18T00:22:57;98245.69;;;10.29;100.00
65756;BME280;69208;47.502;18.940;2023-05-18T00:24:02;98248.53;;;10.33;100.00
65756;BME280;69208;47.502;18.940;2023-05-18T00:25:05;98243.28;;;10.33;100.00
65756;BME280;69208;47.502;18.940;2023-05-18T00:26:08;98254.81;;;10.32;100.00
65756;BME280;69208;47.502;18.940;2023-05-18T00:27:11;98241.31;;;10.24;100.00
65756;BME280;69208;47.502;18.940;2023-05-18T00:28:14;98242.16;;;10.20;100.00
65756;BME280;69208;47.502;18.940;2023-05-18T00:29:17;98249.53;;;10.18;100.00
65756;BME280;69208;47.502;18.940;2023-05-18T00:30:20;98245.22;;;10.27;100.00
65756;BME280;69208;47.502;18.940;2023-05-18T00:31:25;98250.06;;;10.34;100.00
65756;BME280;69208;47.502;18.940;2023-05-18T00:32:28;98245.00;;;10.23;100.00
65756;BME280;69208;47.502;18.940;2023-05-18T00:33:31;98243.72;;;10.21;100.00
65756;BME280;69208;47.502;18.940;2023-05-18T00:34:34;98241.88;;;10.21;100.00
65756;BME280;69208;47.502;18.940;2023-05-18T00:35:37;98243.50;;;10.36;100.00
65756;BME280;69208;47.502;18.940;2023-05-18T00:36:40;98236.97;;;10.34;100.00
65756;BME280;69208;47.502;18.940;2023-05-18T00:37:43;98238.38;;;10.26;100.00
65756;BME280;69208;47.502;18.940;2023-05-18T00:38:46;98239.31;;;10.35;100.00
65756;BME280;69208;47.502;18.940;2023-05-18T00:39:49;98248.25;;;10.48;100.00
65756;BME280;69208;47.502;18.940;2023-05-18T00:40:52;98238.25;;;10.36;100.00
65756;BME280;69208;47.502;18.940;2023-05-18T00:41:54;98243.38;;;10.28;100.00
65756;BME280;69208;47.502;18.940;2023-05-18T00:42:57;98236.47;;;10.32;100.00
65756;BME280;69208;47.502;18.940;2023-05-18T00:44:02;98240.94;;;10.31;100.00
65756;BME280;69208;47.502;18.940;2023-05-18T00:45:06;98243.00;;;10.34;100.00
65756;BME280;69208;47.502;18.940;2023-05-18T00:46:09;98243.22;;;10.52;100.00
65756;BME280;69208;47.502;18.940;2023-05-18T00:47:13;98241.56;;;10.42;100.00
65756;BME280;69208;47.502;18.940;2023-05-18T00:48:17;98246.88;;;10.37;100.00
65756;BME280;69208;47.502;18.940;2023-05-18T00:49:20;98238.63;;;10.43;100.00
65756;BME280;69208;47.502;18.940;2023-05-18T00:50:23;98239.13;;;10.45;100.00
65756;BME280;69208;47.502;18.940;2023-05-18T00:51:27;98244.75;;;10.53;100.00
65756;BME280;69208;47.502;18.940;2023-05-18T00:52:30;98243.53;;;10.50;100.00
65756;BME280;69208;47.502;18.940;2023-05-18T00:53:34;98244.44;;;10.27;100.00
65756;BME280;69208;47.502;18.940;2023-05-18T00:54:38;98246.69;;;10.33;100.00
65756;BME280;69208;47.502;18.940;2023-05-18T00:55:41;98251.91;;;10.33;100.00
65756;BME280;69208;47.502;18.940;2023-05-18T00:56:45;98243.00;;;10.34;100.00
65756;BME280;69208;47.502;18.940;2023-05-18T00:57:49;98246.75;;;10.28;100.00
65756;BME280;69208;47.502;18.940;2023-05-18T00:58:54;98251.22;;;10.28;100.00
65756;BME280;69208;47.502;18.940;2023-05-18T00:59:59;98244.69;;;10.25;100.00
65756;BME280;69208;47.502;18.940;2023-05-18T01:01:03;98250.06;;;10.34;100.00
65756;BME280;69208;47.502;18.940;2023-05-18T01:02:07;98246.88;;;10.37;100.00
65756;BME280;69208;47.502;18.940;2023-05-18T01:03:11;98244.84;;;10.34;100.00
65756;BME280;69208;47.502;18.940;2023-05-18T01:04:17;98251.03;;;10.38;100.00
65756;BME280;69208;47.502;18.940;2023-05-18T01:05:23;98245.22;;;10.41;100.00
65756;BME280;69208;47.502;18.940;2023-05-18T01:06:27;98251.28;;;10.41;100.00
65756;BME280;69208;47.502;18.940;2023-05-18T01:07:31;98249.31;;;10.33;100.00
65756;BME280;69208;47.502;18.940;2023-05-18T01:08:35;98255.59;;;10.32;100.00
65756;BME280;69208;47.502;18.940;2023-05-18T01:09:38;98252.97;;;10.32;100.00
65756;BME280;69208;47.502;18.940;2023-05-18T01:10:42;98252.41;;;10.35;100.00
65756;BME280;69208;47.502;18.940;2023-05-18T01:13:19;98251.47;;;10.45;100.00
65756;BME280;69208;47.502;18.940;2023-05-18T01:14:58;98250.59;;;10.50;100.00
65756;BME280;69208;47.502;18.940;2023-05-18T01:16:08;98253.31;;;10.44;100.00
65756;BME280;69208;47.502;18.940;2023-05-18T01:18:36;98258.91;;;10.38;100.00
65756;BME280;69208;47.502;18.940;2023-05-18T01:20:11;98254.94;;;10.40;100.00
65756;BME280;69208;47.502;18.940;2023-05-18T01:21:36;98262.06;;;10.54;100.00
65756;BME280;69208;47.502;18.940;2023-05-18T01:23:17;98257.28;;;10.56;100.00
65756;BME280;69208;47.502;18.940;2023-05-18T01:24:37;98252.16;;;10.51;100.00
65756;BME280;69208;47.502;18.940;2023-05-18T01:26:59;98263.44;;;10.32;100.00
65756;BME280;69208;47.502;18.940;2023-05-18T01:28:05;98261.25;;;10.39;100.00
65756;BME280;69208;47.502;18.940;2023-05-18T01:29:12;98262.44;;;10.47;100.00
65756;BME280;69208;47.502;18.940;2023-05-18T01:30:15;98257.28;;;10.42;100.00
65756;BME280;69208;47.502;18.940;2023-05-18T01:31:19;98267.69;;;10.47;100.00
65756;BME280;69208;47.502;18.940;2023-05-18T01:32:22;98266.03;;;10.51;100.00
65756;BME280;69208;47.502;18.940;2023-05-18T01:33:25;98267.00;;;10.55;100.00
65756;BME280;69208;47.502;18.940;2023-05-18T01:34:28;98265.59;;;10.44;100.00
65756;BME280;69208;47.502;18.940;2023-05-18T01:35:31;98262.97;;;10.44;100.00
65756;BME280;69208;47.502;18.940;2023-05-18T01:36:34;98263.37;;;10.37;100.00
65756;BME280;69208;47.502;18.940;2023-05-18T01:37:37;98266.19;;;10.41;100.00
65756;BME280;69208;47.502;18.940;2023-05-18T01:38:40;98259.41;;;10.40;100.00
65756;BME280;69208;47.502;18.940;2023-05-18T01:39:45;98269.94;;;10.35;100.00
65756;BME280;69208;47.502;18.940;2023-05-18T01:42:05;98274.03;;;10.41;100.00
65756;BME280;69208;47.502;18.940;2023-05-18T01:43:10;98271.72;;;10.39;100.00
65756;BME280;69208;47.502;18.940;2023-05-18T01:45:26;98266.53;;;10.53;100.00
65756;BME280;69208;47.502;18.940;2023-05-18T01:46:50;98267.88;;;10.51;100.00
65756;BME280;69208;47.502;18.940;2023-05-18T01:47:57;98269.22;;;10.48;100.00
65756;BME280;69208;47.502;18.940;2023-05-18T01:49:09;98270.37;;;10.42;100.00
65756;BME280;69208;47.502;18.940;2023-05-18T01:50:17;98268.69;;;10.32;100.00
65756;BME280;69208;47.502;18.940;2023-05-18T01:51:28;98269.38;;;10.38;100.00
65756;BME280;69208;47.502;18.940;2023-05-18T01:54:02;98279.56;;;10.39;100.00
65756;BME280;69208;47.502;18.940;2023-05-18T01:55:08;98276.38;;;10.42;100.00
65756;BME280;69208;47.502;18.940;2023-05-18T01:56:12;98268.53;;;10.42;100.00
65756;BME280;69208;47.502;18.940;2023-05-18T01:57:17;98280.78;;;10.47;100.00
65756;BME280;69208;47.502;18.940;2023-05-18T01:58:23;98276.06;;;10.30;100.00
65756;BME280;69208;47.502;18.940;2023-05-18T01:59:27;98272.41;;;10.26;100.00
65756;BME280;69208;47.502;18.940;2023-05-18T02:00:30;98277.22;;;10.38;100.00
65756;BME280;69208;47.502;18.940;2023-05-18T02:01:34;98277.81;;;10.35;100.00
65756;BME280;69208;47.502;18.940;2023-05-18T02:02:37;98276.97;;;10.39;100.00
65756;BME280;69208;47.502;18.940;2023-05-18T02:03:42;98282.56;;;10.33;100.00
65756;BME280;69208;47.502;18.940;2023-05-18T02:04:46;98280.56;;;10.24;100.00
65756;BME280;69208;47.502;18.940;2023-05-18T02:05:49;98281.50;;;10.34;100.00
65756;BME280;69208;47.502;18.940;2023-05-18T02:06:52;98281.13;;;10.40;100.00
65756;BME280;69208;47.502;18.940;2023-05-18T02:07:58;98281.50;;;10.34;100.00
65756;BME280;69208;47.502;18.940;2023-05-18T02:09:01;98281.50;;;10.34;100.00
65756;BME280;69208;47.502;18.940;2023-05-18T02:10:06;98282.69;;;10.41;100.00
65756;BME280;69208;47.502;18.940;2023-05-18T02:11:09;98285.19;;;10.33;100.00
65756;BME280;69208;47.502;18.940;2023-05-18T02:12:12;98286.94;;;10.37;100.00
65756;BME280;69208;47.502;18.940;2023-05-18T02:13:15;98284.44;;;10.46;100.00
65756;BME280;69208;47.502;18.940;2023-05-18T02:14:18;98285.50;;;10.45;100.00
65756;BME280;69208;47.502;18.940;2023-05-18T02:15:20;98285.87;;;10.38;100.00
65756;BME280;69208;47.502;18.940;2023-05-18T02:16:23;98290.12;;;10.34;100.00
65756;BME280;69208;47.502;18.940;2023-05-18T02:17:26;98288.97;;;10.40;100.00
65756;BME280;69208;47.502;18.940;2023-05-18T02:18:30;98284.13;;;10.34;100.00
65756;BME280;69208;47.502;18.940;2023-05-18T02:19:35;98285.00;;;10.43;100.00
65756;BME280;69208;47.502;18.940;2023-05-18T02:20:39;98283.84;;;10.35;100.00
65756;BME280;69208;47.502;18.940;2023-05-18T02:21:43;98292.47;;;10.36;100.00
65756;BME280;69208;47.502;18.940;2023-05-18T02:22:46;98294.31;;;10.35;100.00
65756;BME280;69208;47.502;18.940;2023-05-18T02:23:49;98295.16;;;10.31;100.00
65756;BME280;69208;47.502;18.940;2023-05-18T02:24:52;98294.19;;;10.27;100.00
65756;BME280;69208;47.502;18.940;2023-05-18T02:25:55;98293.87;;;10.28;100.00
65756;BME280;69208;47.502;18.940;2023-05-18T02:26:58;98292.94;;;10.38;100.00
65756;BME280;69208;47.502;18.940;2023-05-18T02:28:01;98295.38;;;10.34;100.00
65756;BME280;69208;47.502;18.940;2023-05-18T02:29:04;98296.38;;;10.38;100.00
65756;BME280;69208;47.502;18.940;2023-05-18T02:30:08;98295.28;;;10.39;100.00
65756;BME280;69208;47.502;18.940;2023-05-18T02:31:11;98291.41;;;10.37;100.00
65756;BME280;69208;47.502;18.940;2023-05-18T02:32:14;98297.34;;;10.23;100.00
65756;BME280;69208;47.502;18.940;2023-05-18T02:33:17;98291.13;;;10.19;100.00
65756;BME280;69208;47.502;18.940;2023-05-18T02:34:21;98297.94;;;10.20;100.00
65756;BME280;69208;47.502;18.940;2023-05-18T02:35:26;98294.50;;;10.20;100.00
65756;BME280;69208;47.502;18.940;2023-05-18T02:36:30;98296.81;;;10.27;100.00
65756;BME280;69208;47.502;18.940;2023-05-18T02:37:38;98291.47;;;10.32;100.00
65756;BME280;69208;47.502;18.940;2023-05-18T02:38:45;98294.72;;;10.23;100.00
65756;BME280;69208;47.502;18.940;2023-05-18T02:39:48;98293.03;;;10.14;100.00
65756;BME280;69208;47.502;18.940;2023-05-18T02:40:51;98293.03;;;10.14;100.00
65756;BME280;69208;47.502;18.940;2023-05-18T02:41:54;98298.19;;;10.19;100.00
65756;BME280;69208;47.502;18.940;2023-05-18T02:42:57;98299.16;;;10.23;100.00
65756;BME280;69208;47.502;18.940;2023-05-18T02:44:00;98302.34;;;10.20;100.00
65756;BME280;69208;47.502;18.940;2023-05-18T02:45:07;98300.31;;;10.17;100.00
65756;BME280;69208;47.502;18.940;2023-05-18T02:46:10;98298.00;;;10.15;100.00
65756;BME280;69208;47.502;18.940;2023-05-18T02:47:13;98299.97;;;10.23;100.00
65756;BME280;69208;47.502;18.940;2023-05-18T02:48:15;98299.97;;;10.23;100.00
65756;BME280;69208;47.502;18.940;2023-05-18T02:49:18;98301.75;;;10.28;100.00
65756;BME280;69208;47.502;18.940;2023-05-18T02:50:21;98299.81;;;10.34;100.00
65756;BME280;69208;47.502;18.940;2023-05-18T02:51:24;98302.53;;;10.29;100.00
65756;BME280;69208;47.502;18.940;2023-05-18T02:52:27;98297.28;;;10.29;100.00
65756;BME280;69208;47.502;18.940;2023-05-18T02:53:30;98303.44;;;10.19;100.00
65756;BME280;69208;47.502;18.940;2023-05-18T02:54:33;98303.22;;;10.15;100.00
65756;BME280;69208;47.502;18.940;2023-05-18T02:55:36;98296.72;;;10.13;100.00
65756;BME280;69208;47.502;18.940;2023-05-18T02:56:39;98301.94;;;10.13;100.00
65756;BME280;69208;47.502;18.940;2023-05-18T02:57:43;98298.56;;;10.12;100.00
65756;BME280;69208;47.502;18.940;2023-05-18T02:58:48;98295.84;;;10.17;100.00
65756;BME280;69208;47.502;18.940;2023-05-18T02:59:52;98300.41;;;10.12;100.00
65756;BME280;69208;47.502;18.940;2023-05-18T03:00:55;98299.84;;;10.15;100.00
65756;BME280;69208;47.502;18.940;2023-05-18T03:01:58;98294.09;;;10.13;100.00
65756;BME280;69208;47.502;18.940;2023-05-18T03:03:01;98299.84;;;10.15;100.00
65756;BME280;69208;47.502;18.940;2023-05-18T03:04:04;98297.69;;;10.17;100.00
65756;BME280;69208;47.502;18.940;2023-05-18T03:05:07;98299.47;;;10.21;100.00
65756;BME280;69208;47.502;18.940;2023-05-18T03:06:11;98299.63;;;10.30;100.00
65756;BME280;69208;47.502;18.940;2023-05-18T03:07:15;98299.97;;;10.23;100.00
65756;BME280;69208;47.502;18.940;2023-05-18T03:08:19;98293.34;;;10.26;100.00
65756;BME280;69208;47.502;18.940;2023-05-18T03:09:22;98300.81;;;10.19;100.00
65756;BME280;69208;47.502;18.940;2023-05-18T03:10:26;98302.47;;;10.15;100.00
65756;BME280;69208;47.502;18.940;2023-05-18T03:11:28;98304.50;;;10.18;100.00
65756;BME280;69208;47.502;18.940;2023-05-18T03:12:31;98305.66;;;10.12;100.00
65756;BME280;69208;47.502;18.940;2023-05-18T03:13:34;98305.06;;;10.15;100.00
65756;BME280;69208;47.502;18.940;2023-05-18T03:14:37;98306.41;;;10.12;100.00
65756;BME280;69208;47.502;18.940;2023-05-18T03:15:40;98310.19;;;10.06;100.00
65756;BME280;69208;47.502;18.940;2023-05-18T03:16:43;98306.56;;;10.02;100.00
65756;BME280;69208;47.502;18.940;2023-05-18T03:17:46;98311.72;;;10.07;100.00
65756;BME280;69208;47.502;18.940;2023-05-18T03:18:51;98311.72;;;10.07;100.00
65756;BME280;69208;47.502;18.940;2023-05-18T03:19:54;98306.28;;;10.03;100.00
65756;BME280;69208;47.502;18.940;2023-05-18T03:20:57;98313.12;;;10.18;100.00
65756;BME280;69208;47.502;18.940;2023-05-18T03:22:03;98314.53;;;10.11;100.00
65756;BME280;69208;47.502;18.940;2023-05-18T03:23:08;98313.50;;;10.12;100.00
65756;BME280;69208;47.502;18.940;2023-05-18T03:24:10;98303.66;;;10.03;100.00
65756;BME280;69208;47.502;18.940;2023-05-18T03:25:16;98312.56;;;10.02;100.00
65756;BME280;69208;47.502;18.940;2023-05-18T03:26:19;98311.06;;;9.96;100.00
65756;BME280;69208;47.502;18.940;2023-05-18T03:27:22;98310.75;;;10.03;100.00
65756;BME280;69208;47.502;18.940;2023-05-18T03:28:28;98312.00;;;10.06;100.00
65756;BME280;69208;47.502;18.940;2023-05-18T03:29:31;98311.31;;;10.00;100.00
65756;BME280;69208;47.502;18.940;2023-05-18T03:30:35;98316.25;;;10.01;100.00
65756;BME280;69208;47.502;18.940;2023-05-18T03:31:38;98311.72;;;10.07;100.00
65756;BME280;69208;47.502;18.940;2023-05-18T03:32:41;98312.00;;;10.06;100.00
65756;BME280;69208;47.502;18.940;2023-05-18T03:33:44;98312.50;;;10.08;100.00
65756;BME280;69208;47.502;18.940;2023-05-18T03:34:47;98316.69;;;10.09;100.00
65756;BME280;69208;47.502;18.940;2023-05-18T03:35:50;98319.78;;;10.11;100.00
65756;BME280;69208;47.502;18.940;2023-05-18T03:36:53;98318.16;;;10.15;100.00
65756;BME280;69208;47.502;18.940;2023-05-18T03:37:56;98313.00;;;10.10;100.00
65756;BME280;69208;47.502;18.940;2023-05-18T03:38:59;98316.53;;;10.19;100.00
65756;BME280;69208;47.502;18.940;2023-05-18T03:40:11;98324.03;;;10.07;100.00
65756;BME280;69208;47.502;18.940;2023-05-18T03:41:14;98320.34;;;10.08;100.00
65756;BME280;69208;47.502;18.940;2023-05-18T03:42:17;98326.03;;;10.15;100.00
65756;BME280;69208;47.502;18.940;2023-05-18T03:43:20;98321.34;;;10.12;100.00
65756;BME280;69208;47.502;18.940;2023-05-18T03:44:26;98326.03;;;10.15;100.00
65756;BME280;69208;47.502;18.940;2023-05-18T03:45:29;98323.22;;;10.25;100.00
65756;BME280;69208;47.502;18.940;2023-05-18T03:46:33;98325.34;;;10.23;100.00
65756;BME280;69208;47.502;18.940;2023-05-18T03:47:37;98320.06;;;10.28;100.00
65756;BME280;69208;47.502;18.940;2023-05-18T03:48:40;98326.50;;;10.17;100.00
65756;BME280;69208;47.502;18.940;2023-05-18T03:49:43;98322.13;;;10.12;100.00
65756;BME280;69208;47.502;18.940;2023-05-18T03:50:46;98327.56;;;10.16;100.00
65756;BME280;69208;47.502;18.940;2023-05-18T03:51:50;98332.72;;;10.21;100.00
65756;BME280;69208;47.502;18.940;2023-05-18T03:52:56;98330.75;;;10.13;100.00
65756;BME280;69208;47.502;18.940;2023-05-18T03:53:59;98330.94;;;10.16;100.00
65756;BME280;69208;47.502;18.940;2023-05-18T03:55:03;98334.91;;;10.14;100.00
65756;BME280;69208;47.502;18.940;2023-05-18T03:56:06;98333.63;;;10.11;100.00
65756;BME280;69208;47.502;18.940;2023-05-18T03:57:09;98331.72;;;10.17;100.00
65756;BME280;69208;47.502;18.940;2023-05-18T03:58:12;98334.06;;;10.18;100.00
65756;BME280;69208;47.502;18.940;2023-05-18T03:59:15;98335.81;;;10.23;100.00
65756;BME280;69208;47.502;18.940;2023-05-18T04:00:18;98332.22;;;10.19;100.00
65756;BME280;69208;47.502;18.940;2023-05-18T04:01:21;98338.44;;;10.23;100.00
65756;BME280;69208;47.502;18.940;2023-05-18T04:02:25;98339.87;;;10.15;100.00
65756;BME280;69208;47.502;18.940;2023-05-18T04:03:28;98336.19;;;10.16;100.00
65756;BME280;69208;47.502;18.940;2023-05-18T04:04:32;98340.66;;;10.16;100.00
65756;BME280;69208;47.502;18.940;2023-05-18T04:05:35;98338.59;;;10.32;100.00
65756;BME280;69208;47.502;18.940;2023-05-18T04:06:38;98342.28;;;10.31;100.00
65756;BME280;69208;47.502;18.940;2023-05-18T04:07:41;98340.84;;;10.19;100.00
65756;BME280;69208;47.502;18.940;2023-05-18T04:08:48;98341.50;;;10.11;100.00
65756;BME280;69208;47.502;18.940;2023-05-18T04:09:54;98351.19;;;10.11;100.00
65756;BME280;69208;47.502;18.940;2023-05-18T04:10:57;98339.37;;;10.13;100.00
65756;BME280;69208;47.502;18.940;2023-05-18T04:11:59;98336.97;;;10.17;100.00
65756;BME280;69208;47.502;18.940;2023-05-18T04:13:04;98342.75;;;10.14;100.00
65756;BME280;69208;47.502;18.940;2023-05-18T04:14:08;98341.84;;;10.05;100.00
65756;BME280;69208;47.502;18.940;2023-05-18T04:15:10;98341.28;;;10.08;100.00
65756;BME280;69208;47.502;18.940;2023-05-18T04:16:16;98340.84;;;10.19;100.00
65756;BME280;69208;47.502;18.940;2023-05-18T04:17:19;98346.59;;;10.21;100.00
65756;BME280;69208;47.502;18.940;2023-05-18T04:18:25;98348.31;;;10.12;100.00
65756;BME280;69208;47.502;18.940;2023-05-18T04:19:32;98348.78;;;10.14;100.00
65756;BME280;69208;47.502;18.940;2023-05-18T04:20:36;98356.16;;;10.12;100.00
65756;BME280;69208;47.502;18.940;2023-05-18T04:21:43;98351.06;;;10.21;100.00
65756;BME280;69208;47.502;18.940;2023-05-18T04:22:48;98349.22;;;10.21;100.00
65756;BME280;69208;47.502;18.940;2023-05-18T04:23:52;98348.78;;;10.14;100.00
65756;BME280;69208;47.502;18.940;2023-05-18T04:24:55;98344.72;;;10.27;100.00
65756;BME280;69208;47.502;18.940;2023-05-18T04:25:58;98349.22;;;10.21;100.00
65756;BME280;69208;47.502;18.940;2023-05-18T04:27:02;98355.59;;;10.15;100.00
65756;BME280;69208;47.502;18.940;2023-05-18T04:28:05;98351.78;;;10.27;100.00
65756;BME280;69208;47.502;18.940;2023-05-18T04:29:08;98352.91;;;10.20;100.00
65756;BME280;69208;47.502;18.940;2023-05-18T04:30:12;98348.88;;;10.09;100.00
65756;BME280;69208;47.502;18.940;2023-05-18T04:31:15;98356.63;;;10.14;100.00
65756;BME280;69208;47.502;18.940;2023-05-18T04:32:19;98351.31;;;10.19;100.00
65756;BME280;69208;47.502;18.940;2023-05-18T04:33:22;98355.37;;;10.12;100.00
65756;BME280;69208;47.502;18.940;2023-05-18T04:34:26;98359.75;;;10.16;100.00
65756;BME280;69208;47.502;18.940;2023-05-18T04:35:30;98358.97;;;10.16;100.00
65756;BME280;69208;47.502;18.940;2023-05-18T04:36:33;98358.56;;;10.28;100.00
65756;BME280;69208;47.502;18.940;2023-05-18T04:37:36;98358.19;;;10.15;100.00
65756;BME280;69208;47.502;18.940;2023-05-18T04:38:41;98358.06;;;10.07;100.00
65756;BME280;69208;47.502;18.940;2023-05-18T04:39:44;98358.12;;;10.01;100.00
65756;BME280;69208;47.502;18.940;2023-05-18T04:40:50;98359.53;;;10.13;100.00
65756;BME280;69208;47.502;18.940;2023-05-18T04:41:53;98358.78;;;10.12;100.00
65756;BME280;69208;47.502;18.940;2023-05-18T04:43:02;98363.13;;;10.17;100.00
65756;BME280;69208;47.502;18.940;2023-05-18T04:44:06;98368.88;;;10.19;100.00
65756;BME280;69208;47.502;18.940;2023-05-18T04:45:10;98362.94;;;10.13;100.00
65756;BME280;69208;47.502;18.940;2023-05-18T04:46:15;98358.28;;;10.10;100.00
65756;BME280;69208;47.502;18.940;2023-05-18T04:47:19;98356.72;;;10.28;100.00
65756;BME280;69208;47.502;18.940;2023-05-18T04:48:25;98357.91;;;10.17;100.00
65756;BME280;69208;47.502;18.940;2023-05-18T04:49:28;98355.22;;;10.22;100.00
65756;BME280;69208;47.502;18.940;2023-05-18T04:50:31;98361.53;;;10.21;100.00
65756;BME280;69208;47.502;18.940;2023-05-18T04:51:34;98359.47;;;10.18;100.00
65756;BME280;69208;47.502;18.940;2023-05-18T04:52:38;98360.19;;;10.23;100.00
65756;BME280;69208;47.502;18.940;2023-05-18T04:53:43;98359.12;;;10.24;100.00
65756;BME280;69208;47.502;18.940;2023-05-18T04:54:47;98366.62;;;10.31;100.00
65756;BME280;69208;47.502;18.940;2023-05-18T04:55:52;98362.09;;;10.18;100.00
65756;BME280;69208;47.502;18.940;2023-05-18T04:56:56;98354.50;;;10.16;100.00
65756;BME280;69208;47.502;18.940;2023-05-18T04:57:59;98360.63;;;10.12;100.00
65756;BME280;69208;47.502;18.940;2023-05-18T04:59:03;98358.78;;;10.12;100.00
65756;BME280;69208;47.502;18.940;2023-05-18T05:00:06;98368.38;;;10.17;100.00
65756;BME280;69208;47.502;18.940;2023-05-18T05:01:11;98363.22;;;10.12;100.00
65756;BME280;69208;47.502;18.940;2023-05-18T05:02:17;98357.50;;;10.10;100.00
65756;BME280;69208;47.502;18.940;2023-05-18T05:03:20;98370.53;;;10.15;100.00
65756;BME280;69208;47.502;18.940;2023-05-18T05:04:23;98373.62;;;10.17;100.00
65756;BME280;69208;47.502;18.940;2023-05-18T05:05:26;98376.03;;;10.13;100.00
65756;BME280;69208;47.502;18.940;2023-05-18T05:06:29;98372.63;;;10.13;100.00
65756;BME280;69208;47.502;18.940;2023-05-18T05:07:32;98373.41;;;10.13;100.00
65756;BME280;69208;47.502;18.940;2023-05-18T05:08:36;98375.41;;;10.21;100.00
65756;BME280;69208;47.502;18.940;2023-05-18T05:09:39;98366.19;;;10.24;100.00
65756;BME280;69208;47.502;18.940;2023-05-18T05:10:42;98383.75;;;10.23;100.00
65756;BME280;69208;47.502;18.940;2023-05-18T05:11:45;98379.22;;;10.10;100.00
65756;BME280;69208;47.502;18.940;2023-05-18T05:12:51;98375.09;;;10.04;100.00
65756;BME280;69208;47.502;18.940;2023-05-18T05:13:53;98378.69;;;10.08;100.00
65756;BME280;69208;47.502;18.940;2023-05-18T05:14:56;98380.19;;;10.14;100.00
65756;BME280;69208;47.502;18.940;2023-05-18T05:15:59;98385.78;;;10.08;100.00
65756;BME280;69208;47.502;18.940;2023-05-18T05:17:02;98378.44;;;10.10;100.00
65756;BME280;69208;47.502;18.940;2023-05-18T05:18:05;98380.34;;;10.23;100.00
65756;BME280;69208;47.502;18.940;2023-05-18T05:19:08;98380.84;;;10.25;100.00
65756;BME280;69208;47.502;18.940;2023-05-18T05:20:11;98384.53;;;10.24;100.00
65756;BME280;69208;47.502;18.940;2023-05-18T05:21:14;98383.41;;;10.30;100.00
65756;BME280;69208;47.502;18.940;2023-05-18T05:22:17;98384.75;;;10.28;100.00
65756;BME280;69208;47.502;18.940;2023-05-18T05:23:21;98388.19;;;10.23;100.00
65756;BME280;69208;47.502;18.940;2023-05-18T05:24:24;98387.13;;;10.24;100.00
65756;BME280;69208;47.502;18.940;2023-05-18T05:25:26;98389.47;;;10.25;100.00
65756;BME280;69208;47.502;18.940;2023-05-18T05:26:30;98393.59;;;10.32;100.00
65756;BME280;69208;47.502;18.940;2023-05-18T05:27:33;98389.69;;;10.29;100.00
65756;BME280;69208;47.502;18.940;2023-05-18T05:28:36;98388.09;;;10.33;100.00
65756;BME280;69208;47.502;18.940;2023-05-18T05:29:39;98397.94;;;10.41;100.00
65756;BME280;69208;47.502;18.940;2023-05-18T05:30:42;98384.69;;;10.33;100.00
65756;BME280;69208;47.502;18.940;2023-05-18T05:31:45;98394.38;;;10.32;100.00
65756;BME280;69208;47.502;18.940;2023-05-18T05:32:48;98393.59;;;10.32;100.00
65756;BME280;69208;47.502;18.940;2023-05-18T05:33:51;98389.12;;;10.32;100.00
65756;BME280;69208;47.502;18.940;2023-05-18T05:34:54;98389.56;;;10.39;100.00
65756;BME280;69208;47.502;18.940;2023-05-18T05:35:57;98389.41;;;10.50;100.00
65756;BME280;69208;47.502;18.940;2023-05-18T05:36:59;98396.50;;;10.49;100.00
65756;BME280;69208;47.502;18.940;2023-05-18T05:38:02;98393.09;;;10.48;100.00
65756;BME280;69208;47.502;18.940;2023-05-18T05:39:05;98399.03;;;10.54;100.00
65756;BME280;69208;47.502;18.940;2023-05-18T05:40:09;98402.88;;;10.43;100.00